createdAt,value
2019-05-20T00:01:10.540Z,11.60
2019-05-20T00:03:41.236Z,11.50
2019-05-20T00:06:11.700Z,11.50
2019-05-20T00:08:41.953Z,11.40
2019-05-20T00:11:16.353Z,11.40
2019-05-20T00:13:47.797Z,11.40
2019-05-20T00:16:18.271Z,11.40
2019-05-20T00:18:49.268Z,11.40
2019-05-20T00:21:19.535Z,11.40
2019-05-20T00:23:50.008Z,11.40
2019-05-20T00:26:20.595Z,11.40
2019-05-20T00:28:50.746Z,11.40
2019-05-20T00:31:21.055Z,11.30
2019-05-20T00:33:51.890Z,11.20
2019-05-20T00:36:23.103Z,11.20
2019-05-20T00:39:11.622Z,11.20
2019-05-20T00:41:42.410Z,11.20
2019-05-20T00:44:13.506Z,11.10
2019-05-20T00:46:44.965Z,11.10
2019-05-20T00:49:16.000Z,11.10
2019-05-20T00:51:46.688Z,11.00
2019-05-20T00:54:17.780Z,11.00
2019-05-20T00:56:51.066Z,11.00
2019-05-20T00:59:21.366Z,11.00
2019-05-20T01:01:51.558Z,11.00
2019-05-20T01:04:22.474Z,11.00
2019-05-20T01:06:53.280Z,11.00
2019-05-20T01:09:23.371Z,11.00
2019-05-20T01:11:53.840Z,11.10
2019-05-20T01:14:24.022Z,11.10
2019-05-20T01:16:54.285Z,11.10
2019-05-20T01:19:39.358Z,11.20
2019-05-20T01:22:09.675Z,11.10
2019-05-20T01:24:39.931Z,11.20
2019-05-20T01:27:10.625Z,11.20
2019-05-20T01:29:41.114Z,11.20
2019-05-20T01:32:18.977Z,11.20
2019-05-20T01:34:52.094Z,11.20
2019-05-20T01:37:23.149Z,11.20
2019-05-20T01:39:56.268Z,11.30
2019-05-20T01:42:27.671Z,11.20
2019-05-20T01:44:57.985Z,11.30
2019-05-20T01:47:28.398Z,11.30
2019-05-20T01:50:01.524Z,11.20
2019-05-20T01:52:35.378Z,11.20
2019-05-20T01:55:06.353Z,11.20
2019-05-20T01:57:39.151Z,11.20
2019-05-20T02:00:14.479Z,11.20
2019-05-20T02:02:44.915Z,11.20
2019-05-20T02:05:16.537Z,11.10
2019-05-20T02:07:51.135Z,11.10
2019-05-20T02:10:26.600Z,11.10
2019-05-20T02:12:56.796Z,11.10
2019-05-20T02:15:35.821Z,11.10
2019-05-20T02:18:06.625Z,11.20
2019-05-20T02:20:37.047Z,11.20
2019-05-20T02:23:17.748Z,11.40
2019-05-20T02:25:51.268Z,11.50
2019-05-20T02:28:21.494Z,11.60
2019-05-20T02:30:57.003Z,11.60
2019-05-20T02:33:27.396Z,11.70
2019-05-20T02:35:57.630Z,11.70
2019-05-20T02:38:28.552Z,11.80
2019-05-20T02:41:01.906Z,11.90
2019-05-20T02:43:32.754Z,12.00
2019-05-20T02:46:03.165Z,12.00
2019-05-20T02:48:33.416Z,12.10
2019-05-20T02:51:03.692Z,12.10
2019-05-20T02:53:34.770Z,12.20
2019-05-20T02:56:05.185Z,12.20
2019-05-20T02:58:36.074Z,12.30
2019-05-20T03:01:09.314Z,12.30
2019-05-20T03:03:40.321Z,12.30
2019-05-20T03:06:10.867Z,12.30
2019-05-20T03:08:41.335Z,12.30
2019-05-20T03:11:14.622Z,12.30
2019-05-20T03:13:44.910Z,12.40
2019-05-20T03:16:15.826Z,12.40
2019-05-20T03:18:46.688Z,12.40
2019-05-20T03:21:16.965Z,12.50
2019-05-20T03:23:50.487Z,12.50
2019-05-20T03:26:20.708Z,12.50
2019-05-20T03:28:51.324Z,12.60
2019-05-20T03:31:22.100Z,12.60
2019-05-20T03:33:52.424Z,12.60
2019-05-20T03:36:22.700Z,12.70
2019-05-20T03:38:53.049Z,12.70
2019-05-20T03:41:23.316Z,12.70
2019-05-20T03:43:53.418Z,12.80
2019-05-20T03:46:25.872Z,12.80
2019-05-20T03:48:59.595Z,12.80
2019-05-20T03:51:29.842Z,12.80
2019-05-20T03:54:00.659Z,12.90
2019-05-20T03:56:33.885Z,12.90
2019-05-20T03:59:04.566Z,12.90
2019-05-20T04:01:37.375Z,13.00
2019-05-20T04:04:07.908Z,13.00
2019-05-20T04:06:38.027Z,13.00
2019-05-20T04:09:08.818Z,13.10
2019-05-20T04:11:39.119Z,13.10
2019-05-20T04:14:09.858Z,13.10
2019-05-20T04:16:40.675Z,13.10
2019-05-20T04:19:10.966Z,13.20
2019-05-20T04:21:41.260Z,13.20
2019-05-20T04:24:12.725Z,13.20
2019-05-20T04:26:45.484Z,13.20
2019-05-20T04:29:18.664Z,13.20
2019-05-20T04:31:49.723Z,13.20
2019-05-20T04:34:19.844Z,13.30
2019-05-20T04:36:50.922Z,13.30
2019-05-20T04:39:21.114Z,13.40
2019-05-20T04:41:52.539Z,13.40
2019-05-20T04:44:22.971Z,13.40
2019-05-20T04:46:57.878Z,13.40
2019-05-20T04:49:28.480Z,13.40
2019-05-20T04:52:01.870Z,13.50
2019-05-20T04:54:33.011Z,13.50
2019-05-20T04:57:03.260Z,13.60
2019-05-20T04:59:33.620Z,13.60
2019-05-20T05:02:03.872Z,13.70
2019-05-20T05:04:36.941Z,13.70
2019-05-20T05:07:07.051Z,13.80
2019-05-20T05:09:37.614Z,13.80
2019-05-20T05:12:08.542Z,13.80
2019-05-20T05:14:39.025Z,13.80
2019-05-20T05:17:09.314Z,13.90
2019-05-20T05:19:39.845Z,13.90
2019-05-20T05:22:10.929Z,13.90
2019-05-20T05:24:40.974Z,13.90
2019-05-20T05:27:15.685Z,13.90
2019-05-20T05:29:46.026Z,14.00
2019-05-20T05:32:19.264Z,14.00
2019-05-20T05:34:49.489Z,14.00
2019-05-20T05:37:19.971Z,14.00
2019-05-20T05:39:50.532Z,14.00
2019-05-20T05:42:21.470Z,14.10
2019-05-20T05:44:57.952Z,14.10
2019-05-20T05:47:29.750Z,14.10
2019-05-20T05:50:19.060Z,14.20
2019-05-20T05:52:49.421Z,14.20
2019-05-20T05:55:22.951Z,14.30
2019-05-20T05:57:56.673Z,14.30
2019-05-20T06:00:27.234Z,14.30
2019-05-20T06:03:01.938Z,14.30
2019-05-20T06:05:32.981Z,14.30
2019-05-20T06:08:03.489Z,14.40
2019-05-20T06:10:35.921Z,14.50
2019-05-20T06:13:06.426Z,14.50
2019-05-20T06:15:36.669Z,14.50
2019-05-20T06:18:12.080Z,14.60
2019-05-20T06:20:42.390Z,14.60
2019-05-20T06:23:13.266Z,14.60
2019-05-20T06:25:43.460Z,14.60
2019-05-20T06:28:14.389Z,14.70
2019-05-20T06:30:45.727Z,14.70
2019-05-20T06:33:16.046Z,14.80
2019-05-20T06:35:50.347Z,14.90
2019-05-20T06:38:43.217Z,15.00
2019-05-20T06:41:13.930Z,15.10
2019-05-20T06:43:49.303Z,15.10
2019-05-20T06:46:23.591Z,15.10
2019-05-20T06:48:54.145Z,15.10
2019-05-20T06:51:25.456Z,15.20
2019-05-20T06:53:55.739Z,15.30
2019-05-20T06:56:25.915Z,15.30
2019-05-20T06:58:59.421Z,15.30
2019-05-20T07:01:30.081Z,15.40
2019-05-20T07:04:00.821Z,15.40
2019-05-20T07:06:45.641Z,15.50
2019-05-20T07:09:05.261Z,15.50
2019-05-20T07:11:35.730Z,15.60
2019-05-20T07:14:06.351Z,15.70
2019-05-20T07:16:41.046Z,15.70
2019-05-20T07:19:14.450Z,15.70
2019-05-20T07:21:50.948Z,15.70
2019-05-20T07:24:26.845Z,15.70
2019-05-20T07:26:57.965Z,15.70
2019-05-20T07:29:28.466Z,15.70
2019-05-20T07:31:59.420Z,15.70
2019-05-20T07:34:31.115Z,15.80
2019-05-20T07:37:04.849Z,15.90
2019-05-20T07:39:37.193Z,15.90
2019-05-20T07:42:09.902Z,15.90
2019-05-20T07:44:45.231Z,15.80
2019-05-20T07:47:15.519Z,15.90
2019-05-20T07:49:50.255Z,16.00
2019-05-20T07:52:23.731Z,16.00
2019-05-20T07:54:57.901Z,16.10
2019-05-20T07:57:30.886Z,16.20
2019-05-20T08:00:01.752Z,16.20
2019-05-20T08:02:35.573Z,16.20
2019-05-20T08:05:17.337Z,16.20
2019-05-20T08:07:52.460Z,16.20
2019-05-20T08:10:23.940Z,16.20
2019-05-20T08:12:54.848Z,16.30
2019-05-20T08:15:27.467Z,16.40
2019-05-20T08:17:58.171Z,16.40
2019-05-20T08:20:28.509Z,16.40
2019-05-20T08:22:59.223Z,16.50
2019-05-20T08:25:30.221Z,16.50
2019-05-20T08:28:05.396Z,16.50
2019-05-20T08:30:37.005Z,16.50
2019-05-20T08:33:07.914Z,16.50
2019-05-20T08:35:38.811Z,16.50
2019-05-20T08:38:09.626Z,16.50
2019-05-20T08:40:40.065Z,16.60
2019-05-20T08:43:10.485Z,16.70
2019-05-20T08:45:44.687Z,16.60
2019-05-20T08:48:14.847Z,16.70
2019-05-20T08:50:45.440Z,16.70
2019-05-20T08:53:15.822Z,16.80
2019-05-20T08:55:46.582Z,16.80
2019-05-20T08:58:17.607Z,16.90
2019-05-20T09:00:48.007Z,17.00
2019-05-20T09:03:18.418Z,17.10
2019-05-20T09:05:48.970Z,17.30
2019-05-20T09:08:19.481Z,17.50
2019-05-20T09:10:53.504Z,17.70
2019-05-20T09:13:27.809Z,17.70
2019-05-20T09:16:02.586Z,17.70
2019-05-20T09:18:33.246Z,17.80
2019-05-20T09:21:03.392Z,17.80
2019-05-20T09:23:40.683Z,18.00
2019-05-20T09:26:11.317Z,18.10
2019-05-20T09:28:42.852Z,18.20
2019-05-20T09:31:13.487Z,18.40
2019-05-20T09:33:44.644Z,18.60
2019-05-20T09:36:18.235Z,18.80
2019-05-20T09:38:52.283Z,18.90
2019-05-20T09:41:24.476Z,19.10
2019-05-20T09:44:02.425Z,19.20
2019-05-20T09:46:35.793Z,19.40
2019-05-20T09:49:06.782Z,19.40
2019-05-20T09:51:51.622Z,19.40
2019-05-20T09:54:13.480Z,19.40
2019-05-20T09:56:46.166Z,19.40
2019-05-20T09:59:20.299Z,19.40
2019-05-20T10:01:51.531Z,19.40
2019-05-20T10:04:22.589Z,19.40
2019-05-20T10:07:01.205Z,19.50
2019-05-20T10:09:34.916Z,19.70
2019-05-20T10:12:45.301Z,19.70
2019-05-20T10:15:06.466Z,19.80
2019-05-20T10:17:45.653Z,19.70
2019-05-20T10:20:21.746Z,19.60
2019-05-20T10:22:57.578Z,19.50
2019-05-20T10:25:28.315Z,19.40
2019-05-20T10:28:06.640Z,19.40
2019-05-20T10:30:40.466Z,19.30
2019-05-20T10:33:11.988Z,19.20
2019-05-20T10:35:43.047Z,19.10
2019-05-20T10:38:16.700Z,19.00
2019-05-20T10:40:55.529Z,18.90
2019-05-20T10:43:30.883Z,18.90
2019-05-20T10:46:10.523Z,18.90
2019-05-20T10:48:44.718Z,18.90
2019-05-20T10:51:19.240Z,18.90
2019-05-20T10:53:55.051Z,19.00
2019-05-20T10:56:26.441Z,18.90
2019-05-20T10:58:56.902Z,18.80
2019-05-20T11:01:32.939Z,18.80
2019-05-20T11:04:04.608Z,18.70
2019-05-20T11:06:36.536Z,18.70
2019-05-20T11:09:14.351Z,18.70
2019-05-20T11:11:46.910Z,18.70
2019-05-20T11:14:19.687Z,18.70
2019-05-20T11:16:54.718Z,18.70
2019-05-20T11:19:39.101Z,18.70
2019-05-20T11:22:14.644Z,18.60
2019-05-20T11:24:53.224Z,18.50
2019-05-20T11:27:31.807Z,18.40
2019-05-20T11:30:02.963Z,18.30
2019-05-20T11:32:36.959Z,18.20
2019-05-20T11:35:11.468Z,18.30
2019-05-20T11:37:50.239Z,18.30
2019-05-20T11:40:23.391Z,18.40
2019-05-20T11:43:00.609Z,18.40
2019-05-20T11:45:36.364Z,18.50
2019-05-20T11:48:06.947Z,18.50
2019-05-20T11:50:37.331Z,18.60
2019-05-20T11:53:07.856Z,18.60
2019-05-20T11:55:40.195Z,18.70
2019-05-20T11:58:15.989Z,18.70
2019-05-20T12:00:42.830Z,18.80
2019-05-20T12:03:16.937Z,18.90
2019-05-20T12:05:47.447Z,18.90
2019-05-20T12:08:40.924Z,19.00
2019-05-20T12:11:12.280Z,19.10
2019-05-20T12:13:47.472Z,19.10
2019-05-20T12:16:20.895Z,19.20
2019-05-20T12:18:52.240Z,19.10
2019-05-20T12:21:22.973Z,19.20
2019-05-20T12:23:55.394Z,19.30
2019-05-20T12:26:26.048Z,19.40
2019-05-20T12:28:56.551Z,19.40
2019-05-20T12:31:32.375Z,19.30
2019-05-20T12:34:08.752Z,19.10
2019-05-20T12:36:41.908Z,19.20
2019-05-20T12:39:21.577Z,19.30
2019-05-20T12:41:54.360Z,19.30
2019-05-20T12:44:31.983Z,19.50
2019-05-20T12:47:02.868Z,19.50
2019-05-20T12:49:34.495Z,19.50
2019-05-20T12:52:05.608Z,19.50
2019-05-20T12:54:39.968Z,19.40
2019-05-20T12:57:10.607Z,19.50
2019-05-20T12:59:44.375Z,19.50
2019-05-20T13:02:18.158Z,19.60
2019-05-20T13:04:51.372Z,19.60
2019-05-20T13:07:27.071Z,19.80
2019-05-20T13:10:03.674Z,19.80
2019-05-20T13:12:36.912Z,19.80
2019-05-20T13:15:08.232Z,19.80
2019-05-20T13:17:45.002Z,20.00
2019-05-20T13:20:20.319Z,20.10
2019-05-20T13:22:52.582Z,20.10
2019-05-20T13:25:28.338Z,20.10
2019-05-20T13:28:05.221Z,20.20
2019-05-20T13:30:38.569Z,20.20
2019-05-20T13:33:10.429Z,20.20
2019-05-20T13:35:46.649Z,20.30
2019-05-20T13:38:28.455Z,20.30
2019-05-20T13:41:13.315Z,20.40
2019-05-20T13:43:43.669Z,20.50
2019-05-20T13:46:26.172Z,20.40
2019-05-20T13:49:05.452Z,20.50
2019-05-20T13:51:38.499Z,20.50
2019-05-20T13:54:10.804Z,20.30
2019-05-20T13:56:42.328Z,20.30
2019-05-20T13:59:18.140Z,20.20
2019-05-20T14:01:51.095Z,20.10
2019-05-20T14:04:28.578Z,20.10
2019-05-20T14:07:00.991Z,20.20
2019-05-20T14:09:49.452Z,20.20
2019-05-20T14:12:24.045Z,20.20
2019-05-20T14:14:55.019Z,20.30
2019-05-20T14:17:26.397Z,20.20
2019-05-20T14:19:57.798Z,20.10
2019-05-20T14:22:30.972Z,20.10
2019-05-20T14:25:08.186Z,19.90
2019-05-20T14:27:44.965Z,20.00
2019-05-20T14:30:19.233Z,20.00
2019-05-20T14:32:50.481Z,20.00
2019-05-20T14:35:21.005Z,20.10
2019-05-20T14:38:01.208Z,20.10
2019-05-20T14:40:35.633Z,20.10
2019-05-20T14:43:19.369Z,20.10
2019-05-20T14:45:51.411Z,20.00
2019-05-20T14:48:23.800Z,20.10
2019-05-20T14:50:54.460Z,20.10
2019-05-20T14:53:25.237Z,20.20
2019-05-20T14:56:07.489Z,20.20
2019-05-20T14:58:55.179Z,20.20
2019-05-20T15:01:38.333Z,20.40
2019-05-20T15:04:14.939Z,20.50
2019-05-20T15:06:51.180Z,20.60
2019-05-20T15:09:38.051Z,20.60
2019-05-20T15:12:17.206Z,20.50
2019-05-20T15:14:48.344Z,20.40
2019-05-20T15:17:28.534Z,20.30
2019-05-20T15:20:04.990Z,20.10
2019-05-20T15:22:40.183Z,20.00
2019-05-20T15:25:24.948Z,19.80
2019-05-20T15:28:00.591Z,19.70
2019-05-20T15:30:33.280Z,19.70
2019-05-20T15:33:12.500Z,19.60
2019-05-20T15:35:47.602Z,19.60
2019-05-20T15:38:22.637Z,19.50
2019-05-20T15:40:53.687Z,19.50
2019-05-20T15:43:40.320Z,19.50
2019-05-20T15:46:11.378Z,19.50
2019-05-20T15:48:51.910Z,19.50
2019-05-20T15:51:25.293Z,19.40
2019-05-20T15:54:00.984Z,19.20
2019-05-20T15:56:50.812Z,19.10
2019-05-20T15:59:21.452Z,18.90
2019-05-20T16:01:58.613Z,18.80
2019-05-20T16:04:35.936Z,18.70
2019-05-20T16:07:23.871Z,18.60
2019-05-20T16:10:03.159Z,18.50
2019-05-20T16:12:44.263Z,18.50
2019-05-20T16:15:26.695Z,18.40
2019-05-20T16:18:09.451Z,18.40
2019-05-20T16:20:42.636Z,18.40
2019-05-20T16:23:23.129Z,18.40
2019-05-20T16:26:02.992Z,18.40
2019-05-20T16:28:42.734Z,18.40
2019-05-20T16:31:28.810Z,18.30
2019-05-20T16:34:08.571Z,18.30
2019-05-20T16:36:47.553Z,18.40
2019-05-20T16:39:21.485Z,18.50
2019-05-20T16:42:03.233Z,18.50
2019-05-20T16:44:39.762Z,18.50
2019-05-20T16:47:11.429Z,18.60
2019-05-20T16:49:48.470Z,18.60
2019-05-20T16:52:20.602Z,18.60
2019-05-20T16:55:00.238Z,18.60
2019-05-20T16:57:33.049Z,18.60
2019-05-20T17:00:07.434Z,18.60
2019-05-20T17:02:36.812Z,18.50
2019-05-20T17:05:08.994Z,18.50
2019-05-20T17:07:46.711Z,18.50
2019-05-20T17:10:17.685Z,18.50
2019-05-20T17:12:48.292Z,18.50
2019-05-20T17:15:22.679Z,18.50
2019-05-20T17:17:56.375Z,18.50
2019-05-20T17:20:29.220Z,18.50
2019-05-20T17:23:15.500Z,18.40
2019-05-20T17:25:50.997Z,18.40
2019-05-20T17:28:22.091Z,18.30
2019-05-20T17:30:54.492Z,18.30
2019-05-20T17:33:29.317Z,18.30
2019-05-20T17:36:12.052Z,18.30
2019-05-20T17:38:48.516Z,18.30
2019-05-20T17:41:30.082Z,18.30
2019-05-20T17:44:05.467Z,18.30
2019-05-20T17:46:37.746Z,18.20
2019-05-20T17:49:10.495Z,18.20
2019-05-20T17:51:50.079Z,18.20
2019-05-20T17:54:21.818Z,18.10
2019-05-20T17:56:56.554Z,18.10
2019-05-20T17:59:38.535Z,18.10
2019-05-20T18:02:17.707Z,18.00
2019-05-20T18:04:51.118Z,17.90
2019-05-20T18:07:32.104Z,17.90
2019-05-20T18:10:07.066Z,17.80
2019-05-20T18:12:45.595Z,17.80
2019-05-20T18:15:22.661Z,17.80
2019-05-20T18:17:55.686Z,17.80
2019-05-20T18:20:51.542Z,17.70
2019-05-20T18:23:28.684Z,17.70
2019-05-20T18:26:03.323Z,17.70
2019-05-20T18:28:45.503Z,17.60
2019-05-20T18:31:36.100Z,17.50
2019-05-20T18:34:14.272Z,17.50
2019-05-20T18:36:48.707Z,17.50
2019-05-20T18:39:20.587Z,17.50
2019-05-20T18:41:58.361Z,17.40
2019-05-20T18:44:35.377Z,17.40
2019-05-20T18:47:09.098Z,17.30
2019-05-20T18:49:41.267Z,17.30
2019-05-20T18:52:23.079Z,17.30
2019-05-20T18:54:54.236Z,17.30
2019-05-20T18:57:31.759Z,17.30
2019-05-20T19:00:08.313Z,17.20
2019-05-20T19:02:39.795Z,17.20
2019-05-20T19:05:17.350Z,17.10
2019-05-20T19:07:49.595Z,17.20
2019-05-20T19:10:22.457Z,17.10
2019-05-20T19:13:06.544Z,17.10
2019-05-20T19:15:38.452Z,17.10
2019-05-20T19:18:12.202Z,17.10
2019-05-20T19:20:50.111Z,17.00
2019-05-20T19:23:23.201Z,17.00
2019-05-20T19:25:54.594Z,16.90
2019-05-20T19:28:36.735Z,16.90
2019-05-20T19:31:14.126Z,16.90
2019-05-20T19:33:45.592Z,16.80
2019-05-20T19:36:22.620Z,16.80
2019-05-20T19:39:02.309Z,16.80
2019-05-20T19:41:45.404Z,16.80
2019-05-20T19:44:15.411Z,16.70
2019-05-20T19:46:46.540Z,16.70
2019-05-20T19:49:24.369Z,16.70
2019-05-20T19:51:57.298Z,16.70
2019-05-20T19:54:28.503Z,16.70
2019-05-20T19:57:02.919Z,16.60
2019-05-20T19:59:43.032Z,16.60
2019-05-20T20:02:17.520Z,16.60
2019-05-20T20:04:47.414Z,16.50
2019-05-20T20:07:21.345Z,16.50
2019-05-20T20:09:55.819Z,16.40
2019-05-20T20:12:39.057Z,16.40
2019-05-20T20:15:26.283Z,16.40
2019-05-20T20:17:57.281Z,16.40
2019-05-20T20:20:29.305Z,16.40
2019-05-20T20:23:04.845Z,16.40
2019-05-20T20:25:43.322Z,16.30
2019-05-20T20:28:14.651Z,16.30
2019-05-20T20:30:54.004Z,16.20
2019-05-20T20:33:27.463Z,16.20
2019-05-20T20:36:00.100Z,16.20
2019-05-20T20:38:36.427Z,16.20
2019-05-20T20:41:13.152Z,16.20
2019-05-20T20:44:25.003Z,16.10
2019-05-20T20:47:20.467Z,16.10
2019-05-20T20:50:15.252Z,16.10
2019-05-20T20:52:56.645Z,16.10
2019-05-20T20:55:38.531Z,16.10
2019-05-20T20:58:16.938Z,16.10
2019-05-20T21:00:48.571Z,16.10
2019-05-20T21:03:32.229Z,16.10
2019-05-20T21:06:11.334Z,16.00
2019-05-20T21:08:53.471Z,16.00
2019-05-20T21:11:27.689Z,16.00
2019-05-20T21:13:58.271Z,16.00
2019-05-20T21:16:29.255Z,16.00
2019-05-20T21:19:07.893Z,15.90
2019-05-20T21:21:39.627Z,15.90
2019-05-20T21:24:18.951Z,15.80
2019-05-20T21:26:51.696Z,15.80
2019-05-20T21:29:32.347Z,15.70
2019-05-20T21:32:07.461Z,15.70
2019-05-20T21:34:37.886Z,15.70
2019-05-20T21:37:08.758Z,15.70
2019-05-20T21:39:40.673Z,15.60
2019-05-20T21:42:10.998Z,15.60
2019-05-20T21:44:41.516Z,15.60
2019-05-20T21:47:15.417Z,15.60
2019-05-20T21:49:46.823Z,15.50
2019-05-20T21:52:20.543Z,15.50
2019-05-20T21:54:57.671Z,15.50
2019-05-20T21:57:30.650Z,15.50
2019-05-20T22:00:07.271Z,15.50
2019-05-20T22:02:37.485Z,15.50
2019-05-20T22:05:23.475Z,15.40
2019-05-20T22:07:54.247Z,15.40
2019-05-20T22:10:28.137Z,15.40
2019-05-20T22:12:58.591Z,15.30
2019-05-20T22:15:32.590Z,15.30
2019-05-20T22:18:03.392Z,15.30
2019-05-20T22:20:33.811Z,15.30
2019-05-20T22:23:41.076Z,15.30
2019-05-20T22:26:11.506Z,15.30
2019-05-20T22:28:43.249Z,15.20
2019-05-20T22:31:13.865Z,15.20
2019-05-20T22:33:48.386Z,15.20
2019-05-20T22:36:18.701Z,15.20
2019-05-20T22:38:48.820Z,15.10
2019-05-20T22:41:18.864Z,15.10
2019-05-20T22:43:49.492Z,15.10
2019-05-20T22:46:19.965Z,15.10
2019-05-20T22:48:50.482Z,15.00
2019-05-20T22:51:22.929Z,15.00
2019-05-20T22:53:56.016Z,14.90
2019-05-20T22:56:26.396Z,14.80
2019-05-20T22:58:56.940Z,14.80
2019-05-20T23:01:27.843Z,14.80
2019-05-20T23:03:58.447Z,14.70
2019-05-20T23:06:28.693Z,14.60
2019-05-20T23:08:59.272Z,14.60
2019-05-20T23:11:29.742Z,14.60
2019-05-20T23:14:00.057Z,14.60
2019-05-20T23:16:30.405Z,14.60
2019-05-20T23:19:01.704Z,14.50
2019-05-20T23:21:36.642Z,14.50
2019-05-20T23:24:07.277Z,14.40
2019-05-20T23:26:37.836Z,14.40
2019-05-20T23:29:08.060Z,14.40
2019-05-20T23:31:42.137Z,14.40
2019-05-20T23:34:13.380Z,14.40
2019-05-20T23:36:43.773Z,14.30
2019-05-20T23:39:14.466Z,14.30
2019-05-20T23:41:45.070Z,14.30
2019-05-20T23:44:18.076Z,14.30
2019-05-20T23:46:48.410Z,14.30
2019-05-20T23:49:19.273Z,14.30
2019-05-20T23:51:49.485Z,14.20
2019-05-20T23:54:19.667Z,14.20
2019-05-20T23:56:50.386Z,14.20
2019-05-20T23:59:22.680Z,14.20
